sensor_id;sensor_type;location;lat;lon;timestamp;P1;durP1;ratioP1;P2;durP2;ratioP2
12867;SDS011;33517;49.866;8.320;2023-06-14T00:00:41;5.53;;;2.40;;
12867;SDS011;33517;49.866;8.320;2023-06-14T00:03:36;4.43;;;2.70;;
12867;SDS011;33517;49.866;8.320;2023-06-14T00:06:29;2.08;;;1.85;;
12867;SDS011;33517;49.866;8.320;2023-06-14T00:09:21;3.67;;;2.40;;
12867;SDS011;33517;49.866;8.320;2023-06-14T00:12:13;14.70;;;3.40;;
12867;SDS011;33517;49.866;8.320;2023-06-14T00:15:05;2.45;;;1.83;;
12867;SDS011;33517;49.866;8.320;2023-06-14T00:17:57;3.95;;;2.85;;
12867;SDS011;33517;49.866;8.320;2023-06-14T00:20:52;3.95;;;3.20;;
12867;SDS011;33517;49.866;8.320;2023-06-14T00:23:44;6.57;;;4.10;;
12867;SDS011;33517;49.866;8.320;2023-06-14T00:26:36;2.67;;;1.88;;
12867;SDS011;33517;49.866;8.320;2023-06-14T00:29:27;2.88;;;2.38;;
12867;SDS011;33517;49.866;8.320;2023-06-14T00:32:19;7.85;;;3.80;;
12867;SDS011;33517;49.866;8.320;2023-06-14T00:35:16;6.25;;;3.95;;
12867;SDS011;33517;49.866;8.320;2023-06-14T00:38:09;10.77;;;6.80;;
12867;SDS011;33517;49.866;8.320;2023-06-14T00:41:01;13.77;;;6.60;;
12867;SDS011;33517;49.866;8.320;2023-06-14T00:43:52;5.22;;;3.03;;
12867;SDS011;33517;49.866;8.320;2023-06-14T00:46:47;2.05;;;1.85;;
12867;SDS011;33517;49.866;8.320;2023-06-14T00:49:39;4.65;;;2.60;;
12867;SDS011;33517;49.866;8.320;2023-06-14T00:52:31;4.90;;;3.50;;
12867;SDS011;33517;49.866;8.320;2023-06-14T00:55:24;7.85;;;5.40;;
12867;SDS011;33517;49.866;8.320;2023-06-14T00:58:16;3.05;;;2.33;;
12867;SDS011;33517;49.866;8.320;2023-06-14T01:01:08;3.75;;;2.33;;
12867;SDS011;33517;49.866;8.320;2023-06-14T01:04:00;1.65;;;1.50;;
12867;SDS011;33517;49.866;8.320;2023-06-14T01:06:53;2.58;;;1.73;;
12867;SDS011;33517;49.866;8.320;2023-06-14T01:09:58;1.15;;;1.08;;
12867;SDS011;33517;49.866;8.320;2023-06-14T01:12:57;1.60;;;1.50;;
12867;SDS011;33517;49.866;8.320;2023-06-14T01:15:54;3.33;;;2.22;;
12867;SDS011;33517;49.866;8.320;2023-06-14T01:18:47;3.63;;;2.35;;
12867;SDS011;33517;49.866;8.320;2023-06-14T01:21:40;1.77;;;1.60;;
12867;SDS011;33517;49.866;8.320;2023-06-14T01:24:34;3.50;;;2.47;;
12867;SDS011;33517;49.866;8.320;2023-06-14T01:27:26;1.65;;;1.40;;
12867;SDS011;33517;49.866;8.320;2023-06-14T01:30:20;1.25;;;1.17;;
12867;SDS011;33517;49.866;8.320;2023-06-14T01:33:17;5.10;;;2.60;;
12867;SDS011;33517;49.866;8.320;2023-06-14T01:36:10;4.75;;;2.58;;
12867;SDS011;33517;49.866;8.320;2023-06-14T01:39:03;4.95;;;2.03;;
12867;SDS011;33517;49.866;8.320;2023-06-14T01:41:58;2.78;;;2.22;;
12867;SDS011;33517;49.866;8.320;2023-06-14T01:44:51;2.78;;;1.92;;
12867;SDS011;33517;49.866;8.320;2023-06-14T01:47:45;2.95;;;1.65;;
12867;SDS011;33517;49.866;8.320;2023-06-14T01:50:38;2.17;;;1.58;;
12867;SDS011;33517;49.866;8.320;2023-06-14T01:53:30;1.45;;;1.30;;
12867;SDS011;33517;49.866;8.320;2023-06-14T01:56:21;1.13;;;1.13;;
12867;SDS011;33517;49.866;8.320;2023-06-14T01:59:15;2.20;;;1.80;;
12867;SDS011;33517;49.866;8.320;2023-06-14T02:02:07;1.55;;;1.45;;
12867;SDS011;33517;49.866;8.320;2023-06-14T02:04:59;1.60;;;1.50;;
12867;SDS011;33517;49.866;8.320;2023-06-14T02:07:52;1.70;;;1.58;;
12867;SDS011;33517;49.866;8.320;2023-06-14T02:10:44;1.92;;;1.40;;
12867;SDS011;33517;49.866;8.320;2023-06-14T02:13:36;2.65;;;1.92;;
12867;SDS011;33517;49.866;8.320;2023-06-14T02:16:29;2.08;;;1.70;;
12867;SDS011;33517;49.866;8.320;2023-06-14T02:19:23;2.20;;;1.92;;
12867;SDS011;33517;49.866;8.320;2023-06-14T02:22:15;3.95;;;2.25;;
12867;SDS011;33517;49.866;8.320;2023-06-14T02:25:07;1.48;;;1.23;;
12867;SDS011;33517;49.866;8.320;2023-06-14T02:28:00;1.95;;;1.70;;
12867;SDS011;33517;49.866;8.320;2023-06-14T02:30:52;0.82;;;0.82;;
12867;SDS011;33517;49.866;8.320;2023-06-14T02:33:45;2.92;;;2.05;;
12867;SDS011;33517;49.866;8.320;2023-06-14T02:36:37;3.35;;;1.92;;
12867;SDS011;33517;49.866;8.320;2023-06-14T02:39:31;1.60;;;1.50;;
12867;SDS011;33517;49.866;8.320;2023-06-14T02:42:23;2.60;;;1.77;;
12867;SDS011;33517;49.866;8.320;2023-06-14T02:45:15;2.72;;;1.50;;
12867;SDS011;33517;49.866;8.320;2023-06-14T02:48:07;3.13;;;1.48;;
12867;SDS011;33517;49.866;8.320;2023-06-14T02:51:00;1.17;;;1.08;;
12867;SDS011;33517;49.866;8.320;2023-06-14T02:53:52;1.17;;;0.98;;
12867;SDS011;33517;49.866;8.320;2023-06-14T02:56:44;2.83;;;1.52;;
12867;SDS011;33517;49.866;8.320;2023-06-14T02:59:36;1.05;;;1.02;;
12867;SDS011;33517;49.866;8.320;2023-06-14T03:02:27;1.38;;;1.27;;
12867;SDS011;33517;49.866;8.320;2023-06-14T03:05:19;2.95;;;1.80;;
12867;SDS011;33517;49.866;8.320;2023-06-14T03:08:13;1.65;;;1.50;;
12867;SDS011;33517;49.866;8.320;2023-06-14T03:11:07;1.45;;;1.25;;
12867;SDS011;33517;49.866;8.320;2023-06-14T03:13:59;2.25;;;1.67;;
12867;SDS011;33517;49.866;8.320;2023-06-14T03:16:54;1.08;;;0.98;;
12867;SDS011;33517;49.866;8.320;2023-06-14T03:19:47;1.55;;;1.45;;
12867;SDS011;33517;49.866;8.320;2023-06-14T03:22:38;1.85;;;1.75;;
12867;SDS011;33517;49.866;8.320;2023-06-14T03:25:32;1.90;;;1.80;;
12867;SDS011;33517;49.866;8.320;2023-06-14T03:28:26;12.05;;;1.15;;
12867;SDS011;33517;49.866;8.320;2023-06-14T03:31:17;1.63;;;1.17;;
12867;SDS011;33517;49.866;8.320;2023-06-14T03:34:10;2.80;;;1.85;;
12867;SDS011;33517;49.866;8.320;2023-06-14T03:37:01;1.98;;;1.33;;
12867;SDS011;33517;49.866;8.320;2023-06-14T03:39:53;1.40;;;1.30;;
12867;SDS011;33517;49.866;8.320;2023-06-14T03:42:46;1.63;;;1.52;;
12867;SDS011;33517;49.866;8.320;2023-06-14T03:45:38;3.38;;;2.10;;
12867;SDS011;33517;49.866;8.320;2023-06-14T03:48:30;1.30;;;1.20;;
12867;SDS011;33517;49.866;8.320;2023-06-14T03:51:22;1.92;;;1.35;;
12867;SDS011;33517;49.866;8.320;2023-06-14T03:54:15;1.60;;;1.50;;
12867;SDS011;33517;49.866;8.320;2023-06-14T03:57:07;6.22;;;1.52;;
12867;SDS011;33517;49.866;8.320;2023-06-14T04:00:00;1.38;;;1.27;;
12867;SDS011;33517;49.866;8.320;2023-06-14T04:02:55;3.92;;;1.92;;
12867;SDS011;33517;49.866;8.320;2023-06-14T04:05:47;1.50;;;1.10;;
12867;SDS011;33517;49.866;8.320;2023-06-14T04:08:39;2.22;;;1.60;;
12867;SDS011;33517;49.866;8.320;2023-06-14T04:11:31;10.27;;;2.38;;
12867;SDS011;33517;49.866;8.320;2023-06-14T04:14:23;3.03;;;1.77;;
12867;SDS011;33517;49.866;8.320;2023-06-14T04:17:16;1.15;;;0.90;;
12867;SDS011;33517;49.866;8.320;2023-06-14T04:20:08;1.13;;;0.98;;
12867;SDS011;33517;49.866;8.320;2023-06-14T04:23:11;1.65;;;1.52;;
12867;SDS011;33517;49.866;8.320;2023-06-14T04:26:03;2.15;;;1.77;;
12867;SDS011;33517;49.866;8.320;2023-06-14T04:28:55;1.33;;;1.23;;
12867;SDS011;33517;49.866;8.320;2023-06-14T04:31:53;1.73;;;1.35;;
12867;SDS011;33517;49.866;8.320;2023-06-14T04:34:50;2.10;;;1.67;;
12867;SDS011;33517;49.866;8.320;2023-06-14T04:37:43;2.72;;;1.77;;
12867;SDS011;33517;49.866;8.320;2023-06-14T04:40:35;1.65;;;1.48;;
12867;SDS011;33517;49.866;8.320;2023-06-14T04:43:32;1.50;;;1.20;;
12867;SDS011;33517;49.866;8.320;2023-06-14T04:46:29;1.48;;;1.38;;
12867;SDS011;33517;49.866;8.320;2023-06-14T04:49:22;1.80;;;1.30;;
12867;SDS011;33517;49.866;8.320;2023-06-14T04:52:15;1.33;;;1.23;;
12867;SDS011;33517;49.866;8.320;2023-06-14T04:55:08;2.03;;;1.83;;
12867;SDS011;33517;49.866;8.320;2023-06-14T04:58:00;1.45;;;1.35;;
12867;SDS011;33517;49.866;8.320;2023-06-14T05:00:52;2.28;;;1.50;;
12867;SDS011;33517;49.866;8.320;2023-06-14T05:03:46;1.52;;;1.42;;
12867;SDS011;33517;49.866;8.320;2023-06-14T05:06:39;2.03;;;1.58;;
12867;SDS011;33517;49.866;8.320;2023-06-14T05:09:32;1.58;;;1.48;;
12867;SDS011;33517;49.866;8.320;2023-06-14T05:12:24;1.55;;;1.45;;
12867;SDS011;33517;49.866;8.320;2023-06-14T05:15:16;2.05;;;1.85;;
12867;SDS011;33517;49.866;8.320;2023-06-14T05:18:08;1.60;;;1.27;;
12867;SDS011;33517;49.866;8.320;2023-06-14T05:21:00;1.38;;;1.27;;
12867;SDS011;33517;49.866;8.320;2023-06-14T05:23:51;5.15;;;1.70;;
12867;SDS011;33517;49.866;8.320;2023-06-14T05:26:45;2.40;;;1.70;;
12867;SDS011;33517;49.866;8.320;2023-06-14T05:29:37;1.48;;;1.35;;
12867;SDS011;33517;49.866;8.320;2023-06-14T05:32:30;1.20;;;1.10;;
12867;SDS011;33517;49.866;8.320;2023-06-14T05:35:22;1.63;;;1.40;;
12867;SDS011;33517;49.866;8.320;2023-06-14T05:38:16;1.50;;;1.40;;
12867;SDS011;33517;49.866;8.320;2023-06-14T05:41:08;2.70;;;1.13;;
12867;SDS011;33517;49.866;8.320;2023-06-14T05:44:01;2.00;;;1.60;;
12867;SDS011;33517;49.866;8.320;2023-06-14T05:46:53;2.08;;;1.30;;
12867;SDS011;33517;49.866;8.320;2023-06-14T05:49:45;1.73;;;1.63;;
12867;SDS011;33517;49.866;8.320;2023-06-14T05:52:37;4.57;;;1.80;;
12867;SDS011;33517;49.866;8.320;2023-06-14T05:55:29;1.50;;;1.40;;
12867;SDS011;33517;49.866;8.320;2023-06-14T05:58:20;1.75;;;1.58;;
12867;SDS011;33517;49.866;8.320;2023-06-14T06:01:14;1.70;;;1.60;;
12867;SDS011;33517;49.866;8.320;2023-06-14T06:04:06;1.92;;;1.58;;
12867;SDS011;33517;49.866;8.320;2023-06-14T06:06:58;2.38;;;1.65;;
12867;SDS011;33517;49.866;8.320;2023-06-14T06:09:49;1.13;;;1.05;;
12867;SDS011;33517;49.866;8.320;2023-06-14T06:12:41;1.48;;;1.30;;
12867;SDS011;33517;49.866;8.320;2023-06-14T06:15:33;1.88;;;1.75;;
12867;SDS011;33517;49.866;8.320;2023-06-14T06:18:27;11.30;;;2.33;;
12867;SDS011;33517;49.866;8.320;2023-06-14T06:21:19;2.45;;;1.70;;
12867;SDS011;33517;49.866;8.320;2023-06-14T06:24:10;2.05;;;1.65;;
12867;SDS011;33517;49.866;8.320;2023-06-14T06:27:03;1.25;;;1.20;;
12867;SDS011;33517;49.866;8.320;2023-06-14T06:29:54;3.08;;;1.42;;
12867;SDS011;33517;49.866;8.320;2023-06-14T06:32:47;2.35;;;1.83;;
12867;SDS011;33517;49.866;8.320;2023-06-14T06:35:42;3.15;;;1.70;;
12867;SDS011;33517;49.866;8.320;2023-06-14T06:38:34;4.30;;;1.58;;
12867;SDS011;33517;49.866;8.320;2023-06-14T06:41:26;1.92;;;1.35;;
12867;SDS011;33517;49.866;8.320;2023-06-14T06:44:18;1.55;;;1.45;;
12867;SDS011;33517;49.866;8.320;2023-06-14T06:47:10;2.03;;;1.83;;
12867;SDS011;33517;49.866;8.320;2023-06-14T06:50:02;1.30;;;1.20;;
12867;SDS011;33517;49.866;8.320;2023-06-14T06:52:55;3.45;;;1.80;;
12867;SDS011;33517;49.866;8.320;2023-06-14T06:55:48;2.40;;;1.70;;
12867;SDS011;33517;49.866;8.320;2023-06-14T06:58:39;1.70;;;1.25;;
12867;SDS011;33517;49.866;8.320;2023-06-14T07:01:31;3.10;;;2.00;;
12867;SDS011;33517;49.866;8.320;2023-06-14T07:04:24;3.10;;;1.90;;
12867;SDS011;33517;49.866;8.320;2023-06-14T07:07:17;9.27;;;1.75;;
12867;SDS011;33517;49.866;8.320;2023-06-14T07:10:10;1.50;;;1.40;;
12867;SDS011;33517;49.866;8.320;2023-06-14T07:13:02;1.95;;;1.63;;
12867;SDS011;33517;49.866;8.320;2023-06-14T07:15:54;1.85;;;1.75;;
12867;SDS011;33517;49.866;8.320;2023-06-14T07:18:49;1.90;;;1.52;;
12867;SDS011;33517;49.866;8.320;2023-06-14T07:21:41;1.75;;;1.45;;
12867;SDS011;33517;49.866;8.320;2023-06-14T07:24:33;1.50;;;1.40;;
12867;SDS011;33517;49.866;8.320;2023-06-14T07:27:27;3.40;;;1.83;;
12867;SDS011;33517;49.866;8.320;2023-06-14T07:30:19;2.05;;;1.88;;
12867;SDS011;33517;49.866;8.320;2023-06-14T07:33:16;6.13;;;1.95;;
12867;SDS011;33517;49.866;8.320;2023-06-14T07:36:07;2.00;;;1.65;;
12867;SDS011;33517;49.866;8.320;2023-06-14T07:38:59;1.77;;;1.67;;
12867;SDS011;33517;49.866;8.320;2023-06-14T07:41:53;1.63;;;1.52;;
12867;SDS011;33517;49.866;8.320;2023-06-14T07:44:47;2.15;;;1.58;;
12867;SDS011;33517;49.866;8.320;2023-06-14T07:47:38;2.85;;;1.77;;
12867;SDS011;33517;49.866;8.320;2023-06-14T07:50:30;3.08;;;1.60;;
12867;SDS011;33517;49.866;8.320;2023-06-14T07:53:23;2.55;;;2.03;;
12867;SDS011;33517;49.866;8.320;2023-06-14T07:56:15;3.08;;;1.92;;
12867;SDS011;33517;49.866;8.320;2023-06-14T07:59:06;1.63;;;1.38;;
12867;SDS011;33517;49.866;8.320;2023-06-14T08:02:00;3.53;;;1.80;;
12867;SDS011;33517;49.866;8.320;2023-06-14T08:04:51;2.70;;;1.58;;
12867;SDS011;33517;49.866;8.320;2023-06-14T08:07:43;2.17;;;1.90;;
12867;SDS011;33517;49.866;8.320;2023-06-14T08:10:35;1.90;;;1.60;;
12867;SDS011;33517;49.866;8.320;2023-06-14T08:13:27;2.08;;;1.38;;
12867;SDS011;33517;49.866;8.320;2023-06-14T08:16:19;2.10;;;1.55;;
12867;SDS011;33517;49.866;8.320;2023-06-14T08:19:12;3.15;;;1.73;;
12867;SDS011;33517;49.866;8.320;2023-06-14T08:22:04;3.75;;;1.70;;
12867;SDS011;33517;49.866;8.320;2023-06-14T08:24:56;1.48;;;1.17;;
12867;SDS011;33517;49.866;8.320;2023-06-14T08:27:48;3.28;;;1.40;;
12867;SDS011;33517;49.866;8.320;2023-06-14T08:30:41;1.77;;;1.23;;
12867;SDS011;33517;49.866;8.320;2023-06-14T08:33:33;1.65;;;1.20;;
12867;SDS011;33517;49.866;8.320;2023-06-14T08:36:26;2.15;;;1.70;;
12867;SDS011;33517;49.866;8.320;2023-06-14T08:39:18;1.52;;;1.30;;
12867;SDS011;33517;49.866;8.320;2023-06-14T08:42:10;1.73;;;1.60;;
12867;SDS011;33517;49.866;8.320;2023-06-14T08:45:04;1.38;;;1.13;;
12867;SDS011;33517;49.866;8.320;2023-06-14T08:47:56;1.00;;;0.98;;
12867;SDS011;33517;49.866;8.320;2023-06-14T08:50:50;1.20;;;1.10;;
12867;SDS011;33517;49.866;8.320;2023-06-14T08:53:43;1.17;;;1.05;;
12867;SDS011;33517;49.866;8.320;2023-06-14T08:56:36;1.13;;;1.05;;
12867;SDS011;33517;49.866;8.320;2023-06-14T08:59:31;1.05;;;0.98;;
12867;SDS011;33517;49.866;8.320;2023-06-14T09:02:29;1.17;;;1.08;;
12867;SDS011;33517;49.866;8.320;2023-06-14T09:05:22;0.98;;;0.98;;
12867;SDS011;33517;49.866;8.320;2023-06-14T09:08:14;1.20;;;1.10;;
12867;SDS011;33517;49.866;8.320;2023-06-14T09:11:08;0.90;;;0.90;;
12867;SDS011;33517;49.866;8.320;2023-06-14T09:14:00;1.15;;;1.05;;
12867;SDS011;33517;49.866;8.320;2023-06-14T09:16:52;0.80;;;0.80;;
12867;SDS011;33517;49.866;8.320;2023-06-14T09:19:44;0.85;;;0.85;;
12867;SDS011;33517;49.866;8.320;2023-06-14T09:22:36;1.20;;;1.10;;
12867;SDS011;33517;49.866;8.320;2023-06-14T09:25:29;0.80;;;0.80;;
12867;SDS011;33517;49.866;8.320;2023-06-14T09:28:25;2.92;;;1.25;;
12867;SDS011;33517;49.866;8.320;2023-06-14T09:31:19;1.63;;;1.25;;
12867;SDS011;33517;49.866;8.320;2023-06-14T09:34:12;1.20;;;1.10;;
12867;SDS011;33517;49.866;8.320;2023-06-14T09:37:04;5.80;;;1.00;;
12867;SDS011;33517;49.866;8.320;2023-06-14T09:39:56;0.93;;;0.88;;
12867;SDS011;33517;49.866;8.320;2023-06-14T09:42:48;1.23;;;1.10;;
12867;SDS011;33517;49.866;8.320;2023-06-14T09:45:42;0.70;;;0.70;;
12867;SDS011;33517;49.866;8.320;2023-06-14T09:48:36;1.10;;;0.98;;
12867;SDS011;33517;49.866;8.320;2023-06-14T09:51:32;0.85;;;0.73;;
12867;SDS011;33517;49.866;8.320;2023-06-14T09:54:26;1.65;;;1.20;;
12867;SDS011;33517;49.866;8.320;2023-06-14T09:57:21;1.00;;;1.00;;
12867;SDS011;33517;49.866;8.320;2023-06-14T10:00:14;2.20;;;0.90;;
12867;SDS011;33517;49.866;8.320;2023-06-14T10:03:12;1.20;;;1.10;;
12867;SDS011;33517;49.866;8.320;2023-06-14T10:06:05;1.95;;;1.00;;
12867;SDS011;33517;49.866;8.320;2023-06-14T10:09:00;0.95;;;0.93;;
12867;SDS011;33517;49.866;8.320;2023-06-14T10:11:56;1.10;;;1.02;;
12867;SDS011;33517;49.866;8.320;2023-06-14T10:14:48;1.20;;;1.10;;
12867;SDS011;33517;49.866;8.320;2023-06-14T10:17:42;1.40;;;1.02;;
12867;SDS011;33517;49.866;8.320;2023-06-14T10:20:40;0.90;;;0.90;;
12867;SDS011;33517;49.866;8.320;2023-06-14T10:23:37;1.80;;;1.30;;
12867;SDS011;33517;49.866;8.320;2023-06-14T10:26:32;0.93;;;0.93;;
12867;SDS011;33517;49.866;8.320;2023-06-14T10:29:24;2.78;;;1.35;;
12867;SDS011;33517;49.866;8.320;2023-06-14T10:32:16;1.67;;;1.17;;
12867;SDS011;33517;49.866;8.320;2023-06-14T10:35:13;1.30;;;1.20;;
12867;SDS011;33517;49.866;8.320;2023-06-14T10:38:11;1.45;;;1.10;;
12867;SDS011;33517;49.866;8.320;2023-06-14T10:41:03;0.90;;;0.90;;
12867;SDS011;33517;49.866;8.320;2023-06-14T10:47:31;3.10;;;1.23;;
12867;SDS011;33517;49.866;8.320;2023-06-14T10:50:27;1.75;;;1.25;;
12867;SDS011;33517;49.866;8.320;2023-06-14T10:53:24;1.08;;;1.05;;
12867;SDS011;33517;49.866;8.320;2023-06-14T10:56:28;0.95;;;0.95;;
12867;SDS011;33517;49.866;8.320;2023-06-14T10:59:21;2.20;;;1.38;;
12867;SDS011;33517;49.866;8.320;2023-06-14T11:02:20;0.88;;;0.88;;
12867;SDS011;33517;49.866;8.320;2023-06-14T11:05:41;3.78;;;1.20;;
12867;SDS011;33517;49.866;8.320;2023-06-14T11:12:31;0.70;;;0.70;;
12867;SDS011;33517;49.866;8.320;2023-06-14T11:15:27;2.83;;;0.95;;
12867;SDS011;33517;49.866;8.320;2023-06-14T11:18:21;1.63;;;1.48;;
12867;SDS011;33517;49.866;8.320;2023-06-14T11:21:17;1.10;;;1.00;;
12867;SDS011;33517;49.866;8.320;2023-06-14T11:24:10;1.05;;;0.95;;
12867;SDS011;33517;49.866;8.320;2023-06-14T11:27:04;1.45;;;1.10;;
12867;SDS011;33517;49.866;8.320;2023-06-14T11:29:56;1.70;;;1.48;;
12867;SDS011;33517;49.866;8.320;2023-06-14T11:32:49;5.05;;;2.78;;
12867;SDS011;33517;49.866;8.320;2023-06-14T11:35:42;0.98;;;0.98;;
12867;SDS011;33517;49.866;8.320;2023-06-14T11:38:35;3.33;;;1.05;;
12867;SDS011;33517;49.866;8.320;2023-06-14T11:41:32;1.45;;;1.30;;
12867;SDS011;33517;49.866;8.320;2023-06-14T11:44:26;3.25;;;1.17;;
12867;SDS011;33517;49.866;8.320;2023-06-14T11:47:18;1.27;;;1.20;;
12867;SDS011;33517;49.866;8.320;2023-06-14T11:50:10;1.35;;;1.25;;
12867;SDS011;33517;49.866;8.320;2023-06-14T11:53:02;1.63;;;1.30;;
12867;SDS011;33517;49.866;8.320;2023-06-14T11:55:57;1.05;;;1.05;;
12867;SDS011;33517;49.866;8.320;2023-06-14T11:58:50;1.25;;;1.15;;
12867;SDS011;33517;49.866;8.320;2023-06-14T12:01:43;1.20;;;1.10;;
12867;SDS011;33517;49.866;8.320;2023-06-14T12:04:36;3.25;;;1.45;;
12867;SDS011;33517;49.866;8.320;2023-06-14T12:07:28;1.20;;;1.10;;
12867;SDS011;33517;49.866;8.320;2023-06-14T12:10:22;1.38;;;1.17;;
12867;SDS011;33517;49.866;8.320;2023-06-14T12:13:16;2.90;;;1.20;;
12867;SDS011;33517;49.866;8.320;2023-06-14T12:16:08;2.22;;;1.35;;
12867;SDS011;33517;49.866;8.320;2023-06-14T12:19:07;1.45;;;1.08;;
12867;SDS011;33517;49.866;8.320;2023-06-14T12:22:00;1.25;;;1.13;;
12867;SDS011;33517;49.866;8.320;2023-06-14T12:24:55;1.17;;;0.88;;
12867;SDS011;33517;49.866;8.320;2023-06-14T12:27:47;1.42;;;1.10;;
12867;SDS011;33517;49.866;8.320;2023-06-14T12:30:40;0.95;;;0.95;;
12867;SDS011;33517;49.866;8.320;2023-06-14T12:33:31;1.08;;;1.05;;
12867;SDS011;33517;49.866;8.320;2023-06-14T12:36:25;1.27;;;1.17;;
12867;SDS011;33517;49.866;8.320;2023-06-14T12:39:17;1.52;;;1.40;;
12867;SDS011;33517;49.866;8.320;2023-06-14T12:42:09;4.50;;;1.35;;
12867;SDS011;33517;49.866;8.320;2023-06-14T12:45:01;1.25;;;1.15;;
12867;SDS011;33517;49.866;8.320;2023-06-14T12:47:53;1.08;;;1.00;;
12867;SDS011;33517;49.866;8.320;2023-06-14T12:50:45;1.15;;;1.05;;
12867;SDS011;33517;49.866;8.320;2023-06-14T12:53:38;1.67;;;1.55;;
12867;SDS011;33517;49.866;8.320;2023-06-14T12:56:30;0.90;;;0.90;;
12867;SDS011;33517;49.866;8.320;2023-06-14T12:59:22;1.70;;;0.70;;
12867;SDS011;33517;49.866;8.320;2023-06-14T13:02:15;0.90;;;0.90;;
12867;SDS011;33517;49.866;8.320;2023-06-14T13:05:07;2.25;;;1.17;;
12867;SDS011;33517;49.866;8.320;2023-06-14T13:08:00;1.13;;;1.10;;
12867;SDS011;33517;49.866;8.320;2023-06-14T13:10:53;5.32;;;1.63;;
12867;SDS011;33517;49.866;8.320;2023-06-14T13:13:45;2.08;;;1.25;;
12867;SDS011;33517;49.866;8.320;2023-06-14T13:16:37;1.98;;;1.42;;
12867;SDS011;33517;49.866;8.320;2023-06-14T13:19:29;1.10;;;1.00;;
12867;SDS011;33517;49.866;8.320;2023-06-14T13:22:20;1.60;;;1.25;;
12867;SDS011;33517;49.866;8.320;2023-06-14T13:25:12;1.25;;;1.17;;
12867;SDS011;33517;49.866;8.320;2023-06-14T13:28:06;1.02;;;1.00;;
12867;SDS011;33517;49.866;8.320;2023-06-14T13:30:58;1.35;;;1.25;;
12867;SDS011;33517;49.866;8.320;2023-06-14T13:33:50;1.38;;;1.27;;
12867;SDS011;33517;49.866;8.320;2023-06-14T13:36:42;1.42;;;1.33;;
12867;SDS011;33517;49.866;8.320;2023-06-14T13:39:34;1.23;;;1.15;;
12867;SDS011;33517;49.866;8.320;2023-06-14T13:42:27;1.48;;;1.17;;
12867;SDS011;33517;49.866;8.320;2023-06-14T13:45:22;0.90;;;0.90;;
12867;SDS011;33517;49.866;8.320;2023-06-14T13:48:14;1.88;;;1.15;;
12867;SDS011;33517;49.866;8.320;2023-06-14T13:51:06;2.90;;;1.55;;
12867;SDS011;33517;49.866;8.320;2023-06-14T13:53:58;2.13;;;1.33;;
12867;SDS011;33517;49.866;8.320;2023-06-14T13:56:50;1.25;;;1.15;;
12867;SDS011;33517;49.866;8.320;2023-06-14T13:59:42;1.40;;;1.30;;
12867;SDS011;33517;49.866;8.320;2023-06-14T14:02:35;1.08;;;1.08;;
12867;SDS011;33517;49.866;8.320;2023-06-14T14:05:27;1.25;;;1.15;;
12867;SDS011;33517;49.866;8.320;2023-06-14T14:08:20;2.15;;;1.77;;
12867;SDS011;33517;49.866;8.320;2023-06-14T14:11:11;1.30;;;1.20;;
12867;SDS011;33517;49.866;8.320;2023-06-14T14:14:03;1.25;;;1.15;;
12867;SDS011;33517;49.866;8.320;2023-06-14T14:16:56;2.30;;;1.40;;
12867;SDS011;33517;49.866;8.320;2023-06-14T14:19:49;1.58;;;1.15;;
12867;SDS011;33517;49.866;8.320;2023-06-14T14:22:41;1.73;;;1.35;;
12867;SDS011;33517;49.866;8.320;2023-06-14T14:25:32;1.20;;;1.10;;
12867;SDS011;33517;49.866;8.320;2023-06-14T14:28:24;1.17;;;1.08;;
12867;SDS011;33517;49.866;8.320;2023-06-14T14:31:16;6.78;;;1.15;;
12867;SDS011;33517;49.866;8.320;2023-06-14T14:34:08;0.85;;;0.85;;
12867;SDS011;33517;49.866;8.320;2023-06-14T14:37:01;1.33;;;1.20;;
12867;SDS011;33517;49.866;8.320;2023-06-14T14:39:53;1.38;;;1.27;;
12867;SDS011;33517;49.866;8.320;2023-06-14T14:42:45;1.90;;;1.40;;
12867;SDS011;33517;49.866;8.320;2023-06-14T14:45:37;2.15;;;1.30;;
12867;SDS011;33517;49.866;8.320;2023-06-14T14:48:29;0.90;;;0.85;;
12867;SDS011;33517;49.866;8.320;2023-06-14T14:51:21;1.30;;;1.20;;
12867;SDS011;33517;49.866;8.320;2023-06-14T14:54:14;1.10;;;1.00;;
12867;SDS011;33517;49.866;8.320;2023-06-14T14:57:06;3.15;;;1.55;;
12867;SDS011;33517;49.866;8.320;2023-06-14T14:59:59;1.27;;;1.17;;
12867;SDS011;33517;49.866;8.320;2023-06-14T15:02:50;1.98;;;1.77;;
12867;SDS011;33517;49.866;8.320;2023-06-14T15:05:42;1.45;;;1.02;;
12867;SDS011;33517;49.866;8.320;2023-06-14T15:08:34;1.50;;;1.40;;
12867;SDS011;33517;49.866;8.320;2023-06-14T15:11:27;1.10;;;1.02;;
12867;SDS011;33517;49.866;8.320;2023-06-14T15:14:19;1.58;;;1.38;;
12867;SDS011;33517;49.866;8.320;2023-06-14T15:17:11;1.45;;;1.17;;
12867;SDS011;33517;49.866;8.320;2023-06-14T15:20:03;2.45;;;1.30;;
12867;SDS011;33517;49.866;8.320;2023-06-14T15:22:56;1.17;;;0.73;;
12867;SDS011;33517;49.866;8.320;2023-06-14T15:25:49;1.40;;;1.17;;
12867;SDS011;33517;49.866;8.320;2023-06-14T15:28:43;1.08;;;1.08;;
12867;SDS011;33517;49.866;8.320;2023-06-14T15:31:35;1.00;;;1.00;;
12867;SDS011;33517;49.866;8.320;2023-06-14T15:34:27;1.65;;;1.33;;
12867;SDS011;33517;49.866;8.320;2023-06-14T15:37:19;1.52;;;1.25;;
12867;SDS011;33517;49.866;8.320;2023-06-14T15:40:11;1.45;;;1.35;;
12867;SDS011;33517;49.866;8.320;2023-06-14T15:43:03;1.20;;;1.10;;
12867;SDS011;33517;49.866;8.320;2023-06-14T15:45:56;1.95;;;1.77;;
12867;SDS011;33517;49.866;8.320;2023-06-14T15:48:48;1.40;;;1.30;;
12867;SDS011;33517;49.866;8.320;2023-06-14T15:51:40;1.50;;;1.40;;
12867;SDS011;33517;49.866;8.320;2023-06-14T15:54:32;0.88;;;0.82;;
12867;SDS011;33517;49.866;8.320;2023-06-14T15:57:24;1.40;;;1.30;;
12867;SDS011;33517;49.866;8.320;2023-06-14T16:00:16;1.00;;;0.75;;
12867;SDS011;33517;49.866;8.320;2023-06-14T16:03:10;1.15;;;1.05;;
12867;SDS011;33517;49.866;8.320;2023-06-14T16:06:02;1.55;;;1.15;;
12867;SDS011;33517;49.866;8.320;2023-06-14T16:08:54;1.92;;;1.25;;
12867;SDS011;33517;49.866;8.320;2023-06-14T16:11:45;1.17;;;1.00;;
12867;SDS011;33517;49.866;8.320;2023-06-14T16:14:38;1.00;;;0.93;;
12867;SDS011;33517;49.866;8.320;2023-06-14T16:17:30;2.00;;;1.50;;
12867;SDS011;33517;49.866;8.320;2023-06-14T16:20:23;0.65;;;0.65;;
12867;SDS011;33517;49.866;8.320;2023-06-14T16:23:15;1.38;;;1.27;;
12867;SDS011;33517;49.866;8.320;2023-06-14T16:26:09;1.42;;;1.05;;
12867;SDS011;33517;49.866;8.320;2023-06-14T16:29:02;0.88;;;0.88;;
12867;SDS011;33517;49.866;8.320;2023-06-14T16:31:54;1.33;;;1.10;;
12867;SDS011;33517;49.866;8.320;2023-06-14T16:34:45;0.95;;;0.95;;
12867;SDS011;33517;49.866;8.320;2023-06-14T16:37:38;0.90;;;0.88;;
12867;SDS011;33517;49.866;8.320;2023-06-14T16:40:31;1.25;;;1.00;;
12867;SDS011;33517;49.866;8.320;2023-06-14T16:43:23;1.33;;;1.23;;
12867;SDS011;33517;49.866;8.320;2023-06-14T16:46:15;1.65;;;1.13;;
12867;SDS011;33517;49.866;8.320;2023-06-14T16:49:19;0.80;;;0.80;;
12867;SDS011;33517;49.866;8.320;2023-06-14T16:52:10;0.70;;;0.70;;
12867;SDS011;33517;49.866;8.320;2023-06-14T16:55:04;1.17;;;1.05;;
12867;SDS011;33517;49.866;8.320;2023-06-14T16:57:56;1.05;;;1.00;;
12867;SDS011;33517;49.866;8.320;2023-06-14T17:00:48;1.20;;;1.10;;
12867;SDS011;33517;49.866;8.320;2023-06-14T17:03:39;1.08;;;1.00;;
12867;SDS011;33517;49.866;8.320;2023-06-14T17:06:31;1.65;;;1.02;;
12867;SDS011;33517;49.866;8.320;2023-06-14T17:09:23;0.77;;;0.75;;
12867;SDS011;33517;49.866;8.320;2023-06-14T17:12:16;0.93;;;0.93;;
12867;SDS011;33517;49.866;8.320;2023-06-14T17:15:09;1.10;;;0.93;;
12867;SDS011;33517;49.866;8.320;2023-06-14T17:18:01;1.30;;;1.10;;
12867;SDS011;33517;49.866;8.320;2023-06-14T17:20:53;1.45;;;1.20;;
12867;SDS011;33517;49.866;8.320;2023-06-14T17:23:45;1.15;;;1.05;;
12867;SDS011;33517;49.866;8.320;2023-06-14T17:26:36;1.02;;;0.90;;
12867;SDS011;33517;49.866;8.320;2023-06-14T17:29:30;1.83;;;1.73;;